sensor_id;sensor_type;location;lat;lon;timestamp;temperature;humidity
4002;DHT22;2015;48.670;9.060;2023-07-29T00:00:32;16.10;99.90
4002;DHT22;2015;48.670;9.060;2023-07-29T00:03:04;16.10;99.90
4002;DHT22;2015;48.670;9.060;2023-07-29T00:05:39;16.20;99.90
4002;DHT22;2015;48.670;9.060;2023-07-29T00:08:11;16.20;99.90
4002;DHT22;2015;48.670;9.060;2023-07-29T00:10:42;16.20;99.90
4002;DHT22;2015;48.670;9.060;2023-07-29T00:13:14;16.20;99.90
4002;DHT22;2015;48.670;9.060;2023-07-29T00:15:46;16.20;99.90
4002;DHT22;2015;48.670;9.060;2023-07-29T00:18:18;16.20;99.90
4002;DHT22;2015;48.670;9.060;2023-07-29T00:20:49;16.20;99.90
4002;DHT22;2015;48.670;9.060;2023-07-29T00:23:21;16.30;99.90
4002;DHT22;2015;48.670;9.060;2023-07-29T00:25:53;16.30;99.90
4002;DHT22;2015;48.670;9.060;2023-07-29T00:28:25;16.30;99.90
4002;DHT22;2015;48.670;9.060;2023-07-29T00:30:57;16.30;99.90
4002;DHT22;2015;48.670;9.060;2023-07-29T00:33:28;16.30;99.90
4002;DHT22;2015;48.670;9.060;2023-07-29T00:36:00;16.20;99.90
4002;DHT22;2015;48.670;9.060;2023-07-29T00:38:33;16.20;99.90
4002;DHT22;2015;48.670;9.060;2023-07-29T00:41:05;16.20;99.90
4002;DHT22;2015;48.670;9.060;2023-07-29T00:43:38;16.20;99.90
4002;DHT22;2015;48.670;9.060;2023-07-29T00:46:09;16.20;99.90
4002;DHT22;2015;48.670;9.060;2023-07-29T00:48:42;16.20;99.90
4002;DHT22;2015;48.670;9.060;2023-07-29T00:51:13;16.20;99.90
4002;DHT22;2015;48.670;9.060;2023-07-29T00:53:45;16.20;99.90
4002;DHT22;2015;48.670;9.060;2023-07-29T00:56:17;16.20;99.90
4002;DHT22;2015;48.670;9.060;2023-07-29T00:58:49;16.20;99.90
4002;DHT22;2015;48.670;9.060;2023-07-29T01:01:21;16.30;99.90
4002;DHT22;2015;48.670;9.060;2023-07-29T01:03:53;16.30;99.90
4002;DHT22;2015;48.670;9.060;2023-07-29T01:06:52;16.30;99.90
4002;DHT22;2015;48.670;9.060;2023-07-29T01:15:56;16.30;99.90
4002;DHT22;2015;48.670;9.060;2023-07-29T01:18:32;16.30;99.90
4002;DHT22;2015;48.670;9.060;2023-07-29T01:21:08;16.30;99.90
4002;DHT22;2015;48.670;9.060;2023-07-29T01:23:40;16.30;99.90
4002;DHT22;2015;48.670;9.060;2023-07-29T01:26:11;16.30;99.90
4002;DHT22;2015;48.670;9.060;2023-07-29T01:38:06;16.30;99.90
4002;DHT22;2015;48.670;9.060;2023-07-29T01:40:42;16.30;99.90
4002;DHT22;2015;48.670;9.060;2023-07-29T01:43:14;16.30;99.90
4002;DHT22;2015;48.670;9.060;2023-07-29T01:45:46;16.30;99.90
4002;DHT22;2015;48.670;9.060;2023-07-29T01:48:18;16.30;99.90
4002;DHT22;2015;48.670;9.060;2023-07-29T01:50:50;16.30;99.90
4002;DHT22;2015;48.670;9.060;2023-07-29T01:53:21;16.20;99.90
4002;DHT22;2015;48.670;9.060;2023-07-29T01:55:53;16.20;99.90
4002;DHT22;2015;48.670;9.060;2023-07-29T01:58:25;16.20;99.90
4002;DHT22;2015;48.670;9.060;2023-07-29T02:00:57;16.20;99.90
4002;DHT22;2015;48.670;9.060;2023-07-29T02:03:28;16.10;99.90
4002;DHT22;2015;48.670;9.060;2023-07-29T02:06:00;16.10;99.90
4002;DHT22;2015;48.670;9.060;2023-07-29T02:08:32;16.10;99.90
4002;DHT22;2015;48.670;9.060;2023-07-29T02:11:03;16.10;99.90
4002;DHT22;2015;48.670;9.060;2023-07-29T02:13:36;16.00;99.90
4002;DHT22;2015;48.670;9.060;2023-07-29T02:16:07;16.00;99.90
4002;DHT22;2015;48.670;9.060;2023-07-29T02:18:39;16.00;99.90
4002;DHT22;2015;48.670;9.060;2023-07-29T02:21:11;16.00;99.90
4002;DHT22;2015;48.670;9.060;2023-07-29T02:23:42;15.90;99.90
4002;DHT22;2015;48.670;9.060;2023-07-29T02:26:14;15.90;99.90
4002;DHT22;2015;48.670;9.060;2023-07-29T02:28:46;15.90;99.90
4002;DHT22;2015;48.670;9.060;2023-07-29T02:31:21;15.90;99.90
4002;DHT22;2015;48.670;9.060;2023-07-29T02:33:53;15.90;99.90
4002;DHT22;2015;48.670;9.060;2023-07-29T02:36:25;15.80;99.90
4002;DHT22;2015;48.670;9.060;2023-07-29T02:38:57;15.80;99.90
4002;DHT22;2015;48.670;9.060;2023-07-29T02:41:29;15.90;99.90
4002;DHT22;2015;48.670;9.060;2023-07-29T02:44:01;15.90;99.90
4002;DHT22;2015;48.670;9.060;2023-07-29T02:46:34;15.90;99.90
4002;DHT22;2015;48.670;9.060;2023-07-29T02:49:06;15.90;99.90
4002;DHT22;2015;48.670;9.060;2023-07-29T02:51:38;16.00;99.90
4002;DHT22;2015;48.670;9.060;2023-07-29T02:54:10;16.00;99.90
4002;DHT22;2015;48.670;9.060;2023-07-29T02:56:41;16.00;99.90
4002;DHT22;2015;48.670;9.060;2023-07-29T02:59:13;16.00;99.90
4002;DHT22;2015;48.670;9.060;2023-07-29T03:01:45;16.00;99.90
4002;DHT22;2015;48.670;9.060;2023-07-29T03:04:16;16.00;99.90
4002;DHT22;2015;48.670;9.060;2023-07-29T03:06:48;16.00;99.90
4002;DHT22;2015;48.670;9.060;2023-07-29T03:09:20;16.00;99.90
4002;DHT22;2015;48.670;9.060;2023-07-29T03:11:51;16.00;99.90
4002;DHT22;2015;48.670;9.060;2023-07-29T03:14:24;16.00;99.90
4002;DHT22;2015;48.670;9.060;2023-07-29T03:16:56;16.00;99.90
4002;DHT22;2015;48.670;9.060;2023-07-29T03:19:27;16.00;99.90
4002;DHT22;2015;48.670;9.060;2023-07-29T03:21:59;16.00;99.90
4002;DHT22;2015;48.670;9.060;2023-07-29T03:24:31;16.00;99.90
4002;DHT22;2015;48.670;9.060;2023-07-29T03:27:03;16.00;99.90
4002;DHT22;2015;48.670;9.060;2023-07-29T03:29:34;16.10;99.90
4002;DHT22;2015;48.670;9.060;2023-07-29T03:32:06;16.10;99.90
4002;DHT22;2015;48.670;9.060;2023-07-29T03:34:38;16.10;99.90
4002;DHT22;2015;48.670;9.060;2023-07-29T03:37:11;16.10;99.90
4002;DHT22;2015;48.670;9.060;2023-07-29T03:39:43;16.20;99.90
4002;DHT22;2015;48.670;9.060;2023-07-29T03:42:15;16.20;99.90
4002;DHT22;2015;48.670;9.060;2023-07-29T03:44:46;16.20;99.90
4002;DHT22;2015;48.670;9.060;2023-07-29T03:47:18;16.20;99.90
4002;DHT22;2015;48.670;9.060;2023-07-29T03:49:50;16.20;99.90
4002;DHT22;2015;48.670;9.060;2023-07-29T03:52:21;16.30;99.90
4002;DHT22;2015;48.670;9.060;2023-07-29T03:54:53;16.20;99.90
4002;DHT22;2015;48.670;9.060;2023-07-29T03:57:25;16.30;99.90
4002;DHT22;2015;48.670;9.060;2023-07-29T03:59:56;16.30;99.90
4002;DHT22;2015;48.670;9.060;2023-07-29T04:02:28;16.40;99.90
4002;DHT22;2015;48.670;9.060;2023-07-29T04:05:00;16.40;99.90
4002;DHT22;2015;48.670;9.060;2023-07-29T04:07:32;16.40;99.90
4002;DHT22;2015;48.670;9.060;2023-07-29T04:10:04;16.40;99.90
4002;DHT22;2015;48.670;9.060;2023-07-29T04:12:36;16.40;99.90
4002;DHT22;2015;48.670;9.060;2023-07-29T04:15:08;16.40;99.90
4002;DHT22;2015;48.670;9.060;2023-07-29T04:17:40;16.40;99.90
4002;DHT22;2015;48.670;9.060;2023-07-29T04:20:12;16.40;99.90
4002;DHT22;2015;48.670;9.060;2023-07-29T04:22:44;16.50;99.90
4002;DHT22;2015;48.670;9.060;2023-07-29T04:25:15;16.50;99.90
4002;DHT22;2015;48.670;9.060;2023-07-29T04:27:47;16.50;99.90
4002;DHT22;2015;48.670;9.060;2023-07-29T04:30:19;16.50;99.90
4002;DHT22;2015;48.670;9.060;2023-07-29T04:32:51;16.50;99.90
4002;DHT22;2015;48.670;9.060;2023-07-29T04:35:22;16.50;99.90
4002;DHT22;2015;48.670;9.060;2023-07-29T04:37:54;16.60;99.90
4002;DHT22;2015;48.670;9.060;2023-07-29T04:40:26;16.60;99.90
4002;DHT22;2015;48.670;9.060;2023-07-29T04:43:00;16.60;99.90
4002;DHT22;2015;48.670;9.060;2023-07-29T04:45:32;16.60;99.90
4002;DHT22;2015;48.670;9.060;2023-07-29T04:48:04;16.60;99.90
4002;DHT22;2015;48.670;9.060;2023-07-29T04:50:36;16.60;99.90
4002;DHT22;2015;48.670;9.060;2023-07-29T04:53:07;16.60;99.90
4002;DHT22;2015;48.670;9.060;2023-07-29T04:55:41;16.60;99.90
4002;DHT22;2015;48.670;9.060;2023-07-29T04:58:14;16.60;99.90
4002;DHT22;2015;48.670;9.060;2023-07-29T05:00:49;16.60;99.90
4002;DHT22;2015;48.670;9.060;2023-07-29T05:03:21;16.60;99.90
4002;DHT22;2015;48.670;9.060;2023-07-29T05:05:52;16.70;99.90
4002;DHT22;2015;48.670;9.060;2023-07-29T05:08:26;16.70;99.90
4002;DHT22;2015;48.670;9.060;2023-07-29T05:10:58;16.70;99.90
4002;DHT22;2015;48.670;9.060;2023-07-29T05:13:30;16.70;99.90
4002;DHT22;2015;48.670;9.060;2023-07-29T05:16:02;16.70;99.90
4002;DHT22;2015;48.670;9.060;2023-07-29T05:18:34;16.80;99.90
4002;DHT22;2015;48.670;9.060;2023-07-29T05:21:05;16.80;99.90
4002;DHT22;2015;48.670;9.060;2023-07-29T05:23:37;16.80;99.90
4002;DHT22;2015;48.670;9.060;2023-07-29T05:26:09;16.80;99.90
4002;DHT22;2015;48.670;9.060;2023-07-29T05:28:40;16.90;99.90
4002;DHT22;2015;48.670;9.060;2023-07-29T05:31:12;16.90;99.90
4002;DHT22;2015;48.670;9.060;2023-07-29T05:33:44;16.90;99.90
4002;DHT22;2015;48.670;9.060;2023-07-29T05:36:16;17.00;99.90
4002;DHT22;2015;48.670;9.060;2023-07-29T05:38:47;17.00;99.90
4002;DHT22;2015;48.670;9.060;2023-07-29T05:41:19;17.10;99.90
4002;DHT22;2015;48.670;9.060;2023-07-29T05:43:51;17.20;99.90
4002;DHT22;2015;48.670;9.060;2023-07-29T05:46:23;17.30;99.90
4002;DHT22;2015;48.670;9.060;2023-07-29T05:48:55;17.30;99.90
4002;DHT22;2015;48.670;9.060;2023-07-29T05:51:27;17.30;99.90
4002;DHT22;2015;48.670;9.060;2023-07-29T05:53:59;17.30;99.90
4002;DHT22;2015;48.670;9.060;2023-07-29T05:56:31;17.40;99.90
4002;DHT22;2015;48.670;9.060;2023-07-29T05:59:03;17.50;99.90
4002;DHT22;2015;48.670;9.060;2023-07-29T06:01:34;17.60;99.90
4002;DHT22;2015;48.670;9.060;2023-07-29T06:04:06;17.60;99.90
4002;DHT22;2015;48.670;9.060;2023-07-29T06:06:38;17.80;99.90
4002;DHT22;2015;48.670;9.060;2023-07-29T06:09:10;17.80;99.90
4002;DHT22;2015;48.670;9.060;2023-07-29T06:11:42;17.90;99.90
4002;DHT22;2015;48.670;9.060;2023-07-29T06:14:16;18.00;99.90
4002;DHT22;2015;48.670;9.060;2023-07-29T06:16:48;18.10;99.90
4002;DHT22;2015;48.670;9.060;2023-07-29T06:19:20;18.20;99.90
4002;DHT22;2015;48.670;9.060;2023-07-29T06:21:55;18.30;99.90
4002;DHT22;2015;48.670;9.060;2023-07-29T06:24:26;18.40;99.90
4002;DHT22;2015;48.670;9.060;2023-07-29T06:26:58;18.50;99.90
4002;DHT22;2015;48.670;9.060;2023-07-29T06:29:30;18.50;99.90
4002;DHT22;2015;48.670;9.060;2023-07-29T06:32:02;18.50;99.90
4002;DHT22;2015;48.670;9.060;2023-07-29T06:34:33;18.50;99.90
4002;DHT22;2015;48.670;9.060;2023-07-29T06:37:05;18.50;99.90
4002;DHT22;2015;48.670;9.060;2023-07-29T06:39:38;18.50;99.90
4002;DHT22;2015;48.670;9.060;2023-07-29T06:42:10;18.30;99.90
4002;DHT22;2015;48.670;9.060;2023-07-29T06:44:41;18.20;99.90
4002;DHT22;2015;48.670;9.060;2023-07-29T06:47:13;18.10;99.90
4002;DHT22;2015;48.670;9.060;2023-07-29T06:49:46;18.00;99.90
4002;DHT22;2015;48.670;9.060;2023-07-29T06:52:18;17.90;99.90
4002;DHT22;2015;48.670;9.060;2023-07-29T06:54:49;17.80;99.90
4002;DHT22;2015;48.670;9.060;2023-07-29T06:57:21;17.80;99.90
4002;DHT22;2015;48.670;9.060;2023-07-29T06:59:53;17.70;99.90
4002;DHT22;2015;48.670;9.060;2023-07-29T07:02:25;17.60;99.90
4002;DHT22;2015;48.670;9.060;2023-07-29T07:04:56;17.60;99.90
4002;DHT22;2015;48.670;9.060;2023-07-29T07:07:28;17.60;99.90
4002;DHT22;2015;48.670;9.060;2023-07-29T07:10:01;17.60;99.90
4002;DHT22;2015;48.670;9.060;2023-07-29T07:12:33;17.50;99.90
4002;DHT22;2015;48.670;9.060;2023-07-29T07:15:05;17.50;99.90
4002;DHT22;2015;48.670;9.060;2023-07-29T07:17:37;17.50;99.90
4002;DHT22;2015;48.670;9.060;2023-07-29T07:20:09;17.50;99.90
4002;DHT22;2015;48.670;9.060;2023-07-29T07:22:40;17.50;99.90
4002;DHT22;2015;48.670;9.060;2023-07-29T07:25:12;17.50;99.90
4002;DHT22;2015;48.670;9.060;2023-07-29T07:27:44;17.50;99.90
4002;DHT22;2015;48.670;9.060;2023-07-29T07:30:16;17.50;99.90
4002;DHT22;2015;48.670;9.060;2023-07-29T07:32:47;17.60;99.90
4002;DHT22;2015;48.670;9.060;2023-07-29T07:35:19;17.70;99.90
4002;DHT22;2015;48.670;9.060;2023-07-29T07:37:51;17.70;99.90
4002;DHT22;2015;48.670;9.060;2023-07-29T07:40:23;17.80;99.90
4002;DHT22;2015;48.670;9.060;2023-07-29T07:42:54;17.80;99.90
4002;DHT22;2015;48.670;9.060;2023-07-29T07:45:26;17.80;99.90
4002;DHT22;2015;48.670;9.060;2023-07-29T07:47:58;17.90;99.90
4002;DHT22;2015;48.670;9.060;2023-07-29T07:50:30;17.90;99.90
4002;DHT22;2015;48.670;9.060;2023-07-29T07:53:02;17.90;99.90
4002;DHT22;2015;48.670;9.060;2023-07-29T07:55:33;18.00;99.90
4002;DHT22;2015;48.670;9.060;2023-07-29T07:58:05;18.10;99.90
4002;DHT22;2015;48.670;9.060;2023-07-29T08:00:37;18.30;99.90
4002;DHT22;2015;48.670;9.060;2023-07-29T08:03:08;18.40;99.90
4002;DHT22;2015;48.670;9.060;2023-07-29T08:05:40;18.60;99.90
4002;DHT22;2015;48.670;9.060;2023-07-29T08:08:12;18.70;99.90
4002;DHT22;2015;48.670;9.060;2023-07-29T08:10:44;18.90;99.90
4002;DHT22;2015;48.670;9.060;2023-07-29T08:13:15;19.00;99.90
4002;DHT22;2015;48.670;9.060;2023-07-29T08:15:48;19.10;99.90
4002;DHT22;2015;48.670;9.060;2023-07-29T08:18:20;19.20;99.90
4002;DHT22;2015;48.670;9.060;2023-07-29T08:21:02;19.30;99.90
4002;DHT22;2015;48.670;9.060;2023-07-29T08:23:35;19.30;99.90
4002;DHT22;2015;48.670;9.060;2023-07-29T08:26:08;19.40;99.90
4002;DHT22;2015;48.670;9.060;2023-07-29T08:28:39;19.60;99.90
4002;DHT22;2015;48.670;9.060;2023-07-29T08:31:11;19.90;99.90
4002;DHT22;2015;48.670;9.060;2023-07-29T08:33:43;20.10;99.90
4002;DHT22;2015;48.670;9.060;2023-07-29T08:36:14;20.50;99.90
4002;DHT22;2015;48.670;9.060;2023-07-29T08:38:46;20.80;99.90
4002;DHT22;2015;48.670;9.060;2023-07-29T08:44:21;21.30;99.90
4002;DHT22;2015;48.670;9.060;2023-07-29T08:46:56;21.50;99.90
4002;DHT22;2015;48.670;9.060;2023-07-29T08:49:30;21.60;99.90
4002;DHT22;2015;48.670;9.060;2023-07-29T08:52:04;21.40;99.90
4002;DHT22;2015;48.670;9.060;2023-07-29T08:54:36;21.30;99.90
4002;DHT22;2015;48.670;9.060;2023-07-29T08:57:08;21.20;99.90
4002;DHT22;2015;48.670;9.060;2023-07-29T08:59:40;21.00;99.90
4002;DHT22;2015;48.670;9.060;2023-07-29T09:02:12;21.00;99.90
4002;DHT22;2015;48.670;9.060;2023-07-29T09:04:44;21.00;99.90
4002;DHT22;2015;48.670;9.060;2023-07-29T09:07:16;21.10;99.90
4002;DHT22;2015;48.670;9.060;2023-07-29T09:09:48;21.20;99.90
4002;DHT22;2015;48.670;9.060;2023-07-29T09:12:20;21.30;99.90
4002;DHT22;2015;48.670;9.060;2023-07-29T09:14:52;21.60;99.90
4002;DHT22;2015;48.670;9.060;2023-07-29T09:17:24;21.80;99.90
4002;DHT22;2015;48.670;9.060;2023-07-29T09:19:56;22.30;99.90
4002;DHT22;2015;48.670;9.060;2023-07-29T09:22:28;23.10;99.90
4002;DHT22;2015;48.670;9.060;2023-07-29T09:25:00;23.60;99.90
4002;DHT22;2015;48.670;9.060;2023-07-29T09:27:31;23.70;99.90
4002;DHT22;2015;48.670;9.060;2023-07-29T09:30:04;23.60;99.90
4002;DHT22;2015;48.670;9.060;2023-07-29T09:32:39;23.40;99.90
4002;DHT22;2015;48.670;9.060;2023-07-29T09:35:14;23.50;99.90
4002;DHT22;2015;48.670;9.060;2023-07-29T09:37:45;23.70;99.90
4002;DHT22;2015;48.670;9.060;2023-07-29T09:40:18;23.80;99.90
4002;DHT22;2015;48.670;9.060;2023-07-29T09:42:51;23.70;99.90
4002;DHT22;2015;48.670;9.060;2023-07-29T09:45:27;23.70;99.90
4002;DHT22;2015;48.670;9.060;2023-07-29T09:47:58;24.20;99.90
4002;DHT22;2015;48.670;9.060;2023-07-29T09:50:31;24.30;99.90
4002;DHT22;2015;48.670;9.060;2023-07-29T09:53:03;24.30;99.90
4002;DHT22;2015;48.670;9.060;2023-07-29T09:55:34;24.00;99.90
4002;DHT22;2015;48.670;9.060;2023-07-29T09:58:06;23.70;99.90
4002;DHT22;2015;48.670;9.060;2023-07-29T10:00:40;23.80;99.90
4002;DHT22;2015;48.670;9.060;2023-07-29T10:03:12;23.80;99.90
4002;DHT22;2015;48.670;9.060;2023-07-29T10:05:46;23.90;99.90
4002;DHT22;2015;48.670;9.060;2023-07-29T10:08:19;24.30;99.90
4002;DHT22;2015;48.670;9.060;2023-07-29T10:10:52;24.80;99.90
4002;DHT22;2015;48.670;9.060;2023-07-29T10:13:24;24.70;99.90
4002;DHT22;2015;48.670;9.060;2023-07-29T10:15:57;24.50;99.90
4002;DHT22;2015;48.670;9.060;2023-07-29T10:18:30;25.00;99.90
4002;DHT22;2015;48.670;9.060;2023-07-29T10:21:02;25.60;99.90
4002;DHT22;2015;48.670;9.060;2023-07-29T10:23:38;25.70;99.90
4002;DHT22;2015;48.670;9.060;2023-07-29T10:26:13;25.70;99.90
4002;DHT22;2015;48.670;9.060;2023-07-29T10:28:48;25.90;99.90
4002;DHT22;2015;48.670;9.060;2023-07-29T10:31:23;27.00;99.90
4002;DHT22;2015;48.670;9.060;2023-07-29T10:33:55;27.70;99.90
4002;DHT22;2015;48.670;9.060;2023-07-29T10:36:28;28.60;99.90
4002;DHT22;2015;48.670;9.060;2023-07-29T10:39:00;29.30;99.90
4002;DHT22;2015;48.670;9.060;2023-07-29T10:42:02;29.80;99.90
4002;DHT22;2015;48.670;9.060;2023-07-29T10:47:24;30.10;99.90
4002;DHT22;2015;48.670;9.060;2023-07-29T10:49:58;30.00;99.90
4002;DHT22;2015;48.670;9.060;2023-07-29T10:55:29;29.40;99.90
4002;DHT22;2015;48.670;9.060;2023-07-29T11:00:42;30.70;99.90
4002;DHT22;2015;48.670;9.060;2023-07-29T11:03:14;31.40;99.90
4002;DHT22;2015;48.670;9.060;2023-07-29T11:05:50;30.90;99.90
4002;DHT22;2015;48.670;9.060;2023-07-29T11:08:31;30.10;99.90
4002;DHT22;2015;48.670;9.060;2023-07-29T11:11:12;30.00;99.90
4002;DHT22;2015;48.670;9.060;2023-07-29T11:13:43;30.40;99.90
4002;DHT22;2015;48.670;9.060;2023-07-29T11:16:16;30.60;99.90
4002;DHT22;2015;48.670;9.060;2023-07-29T11:18:48;30.00;99.90
4002;DHT22;2015;48.670;9.060;2023-07-29T11:21:20;29.20;99.90
4002;DHT22;2015;48.670;9.060;2023-07-29T11:23:53;28.60;99.90
4002;DHT22;2015;48.670;9.060;2023-07-29T11:26:25;28.20;99.90
4002;DHT22;2015;48.670;9.060;2023-07-29T11:28:59;27.90;99.90
4002;DHT22;2015;48.670;9.060;2023-07-29T11:31:41;28.30;99.90
4002;DHT22;2015;48.670;9.060;2023-07-29T11:34:13;28.60;99.90
4002;DHT22;2015;48.670;9.060;2023-07-29T11:36:48;28.50;99.90
4002;DHT22;2015;48.670;9.060;2023-07-29T11:39:20;28.20;99.90
4002;DHT22;2015;48.670;9.060;2023-07-29T11:41:52;27.70;99.90
4002;DHT22;2015;48.670;9.060;2023-07-29T11:44:24;27.00;99.90
4002;DHT22;2015;48.670;9.060;2023-07-29T11:46:56;26.90;99.90
4002;DHT22;2015;48.670;9.060;2023-07-29T11:49:28;26.90;99.90
4002;DHT22;2015;48.670;9.060;2023-07-29T11:52:00;26.80;99.90
4002;DHT22;2015;48.670;9.060;2023-07-29T11:54:32;26.60;99.90
4002;DHT22;2015;48.670;9.060;2023-07-29T11:57:06;26.40;99.90
4002;DHT22;2015;48.670;9.060;2023-07-29T11:59:39;26.30;99.90
4002;DHT22;2015;48.670;9.060;2023-07-29T12:02:13;26.20;99.90
4002;DHT22;2015;48.670;9.060;2023-07-29T12:04:47;25.90;99.90
4002;DHT22;2015;48.670;9.060;2023-07-29T12:07:19;25.90;99.90
4002;DHT22;2015;48.670;9.060;2023-07-29T12:09:52;25.70;99.90
4002;DHT22;2015;48.670;9.060;2023-07-29T12:12:24;25.80;99.90
4002;DHT22;2015;48.670;9.060;2023-07-29T12:14:56;25.70;99.90
4002;DHT22;2015;48.670;9.060;2023-07-29T12:17:28;25.60;99.90
4002;DHT22;2015;48.670;9.060;2023-07-29T12:20:00;25.80;99.90
4002;DHT22;2015;48.670;9.060;2023-07-29T12:22:31;25.70;99.90
4002;DHT22;2015;48.670;9.060;2023-07-29T12:25:03;25.70;99.90
4002;DHT22;2015;48.670;9.060;2023-07-29T12:27:35;25.50;99.90
4002;DHT22;2015;48.670;9.060;2023-07-29T12:30:09;25.50;99.90
4002;DHT22;2015;48.670;9.060;2023-07-29T12:32:45;25.60;99.90
4002;DHT22;2015;48.670;9.060;2023-07-29T12:35:17;25.70;99.90
4002;DHT22;2015;48.670;9.060;2023-07-29T12:37:59;25.60;99.90
4002;DHT22;2015;48.670;9.060;2023-07-29T12:40:31;25.80;99.90
4002;DHT22;2015;48.670;9.060;2023-07-29T12:43:03;25.80;99.90
4002;DHT22;2015;48.670;9.060;2023-07-29T12:45:37;25.90;99.90
4002;DHT22;2015;48.670;9.060;2023-07-29T12:48:12;26.00;99.90
4002;DHT22;2015;48.670;9.060;2023-07-29T12:50:44;26.10;99.90
4002;DHT22;2015;48.670;9.060;2023-07-29T12:53:15;26.00;99.90
4002;DHT22;2015;48.670;9.060;2023-07-29T12:55:47;25.90;99.90
4002;DHT22;2015;48.670;9.060;2023-07-29T12:58:19;25.70;99.90
4002;DHT22;2015;48.670;9.060;2023-07-29T13:00:50;25.60;99.90
4002;DHT22;2015;48.670;9.060;2023-07-29T13:03:22;25.60;99.90
4002;DHT22;2015;48.670;9.060;2023-07-29T13:05:54;25.60;99.90
4002;DHT22;2015;48.670;9.060;2023-07-29T13:08:26;25.50;99.90
4002;DHT22;2015;48.670;9.060;2023-07-29T13:10:57;25.40;99.90
4002;DHT22;2015;48.670;9.060;2023-07-29T13:13:29;25.40;99.90
4002;DHT22;2015;48.670;9.060;2023-07-29T13:16:01;25.40;99.90
4002;DHT22;2015;48.670;9.060;2023-07-29T13:18:33;25.50;99.90
4002;DHT22;2015;48.670;9.060;2023-07-29T13:21:05;25.70;99.90
4002;DHT22;2015;48.670;9.060;2023-07-29T13:23:37;25.90;99.90
4002;DHT22;2015;48.670;9.060;2023-07-29T13:26:09;25.70;99.90
4002;DHT22;2015;48.670;9.060;2023-07-29T13:28:40;25.40;99.90
4002;DHT22;2015;48.670;9.060;2023-07-29T13:31:12;25.50;99.90
4002;DHT22;2015;48.670;9.060;2023-07-29T13:33:44;25.30;99.90
4002;DHT22;2015;48.670;9.060;2023-07-29T13:36:16;25.50;99.90
4002;DHT22;2015;48.670;9.060;2023-07-29T13:38:48;25.50;99.90
4002;DHT22;2015;48.670;9.060;2023-07-29T13:41:19;25.60;99.90
4002;DHT22;2015;48.670;9.060;2023-07-29T13:43:51;25.70;99.90
4002;DHT22;2015;48.670;9.060;2023-07-29T13:46:22;25.80;99.90
4002;DHT22;2015;48.670;9.060;2023-07-29T13:48:54;25.90;99.90
4002;DHT22;2015;48.670;9.060;2023-07-29T13:51:26;25.80;99.90
4002;DHT22;2015;48.670;9.060;2023-07-29T13:53:58;25.70;99.90
4002;DHT22;2015;48.670;9.060;2023-07-29T13:56:29;25.60;99.90
4002;DHT22;2015;48.670;9.060;2023-07-29T13:59:01;25.50;99.90
4002;DHT22;2015;48.670;9.060;2023-07-29T14:01:35;25.40;99.90
4002;DHT22;2015;48.670;9.060;2023-07-29T14:04:07;25.30;99.90
4002;DHT22;2015;48.670;9.060;2023-07-29T14:06:38;25.30;99.90
4002;DHT22;2015;48.670;9.060;2023-07-29T14:09:13;25.20;99.90
4002;DHT22;2015;48.670;9.060;2023-07-29T14:11:45;25.10;99.90
4002;DHT22;2015;48.670;9.060;2023-07-29T14:14:17;24.90;99.90
4002;DHT22;2015;48.670;9.060;2023-07-29T14:16:51;24.90;99.90
4002;DHT22;2015;48.670;9.060;2023-07-29T14:19:23;24.90;99.90
4002;DHT22;2015;48.670;9.060;2023-07-29T14:21:55;25.00;99.90
4002;DHT22;2015;48.670;9.060;2023-07-29T14:24:27;25.00;99.90
4002;DHT22;2015;48.670;9.060;2023-07-29T14:26:58;24.90;99.90
4002;DHT22;2015;48.670;9.060;2023-07-29T14:29:30;24.90;99.90
4002;DHT22;2015;48.670;9.060;2023-07-29T14:32:02;25.00;99.90
4002;DHT22;2015;48.670;9.060;2023-07-29T14:34:34;25.10;99.90
4002;DHT22;2015;48.670;9.060;2023-07-29T14:37:05;25.00;99.90
4002;DHT22;2015;48.670;9.060;2023-07-29T14:39:37;24.90;99.90
4002;DHT22;2015;48.670;9.060;2023-07-29T14:42:09;24.80;99.90
4002;DHT22;2015;48.670;9.060;2023-07-29T14:44:41;24.80;99.90
4002;DHT22;2015;48.670;9.060;2023-07-29T14:47:13;24.80;99.90
4002;DHT22;2015;48.670;9.060;2023-07-29T14:49:44;25.00;99.90
4002;DHT22;2015;48.670;9.060;2023-07-29T14:52:16;25.00;99.90
4002;DHT22;2015;48.670;9.060;2023-07-29T14:54:48;25.00;99.90
4002;DHT22;2015;48.670;9.060;2023-07-29T14:57:19;25.00;99.90
4002;DHT22;2015;48.670;9.060;2023-07-29T14:59:51;24.80;99.90
4002;DHT22;2015;48.670;9.060;2023-07-29T15:02:23;24.80;99.90
4002;DHT22;2015;48.670;9.060;2023-07-29T15:04:55;24.90;99.90
4002;DHT22;2015;48.670;9.060;2023-07-29T15:07:27;24.90;99.90
4002;DHT22;2015;48.670;9.060;2023-07-29T15:09:58;24.90;99.90
4002;DHT22;2015;48.670;9.060;2023-07-29T15:12:30;24.70;99.90
4002;DHT22;2015;48.670;9.060;2023-07-29T15:15:02;24.80;99.90
4002;DHT22;2015;48.670;9.060;2023-07-29T15:17:33;24.70;99.90
4002;DHT22;2015;48.670;9.060;2023-07-29T15:20:05;24.70;99.90
4002;DHT22;2015;48.670;9.060;2023-07-29T15:22:37;24.70;99.90
4002;DHT22;2015;48.670;9.060;2023-07-29T15:25:10;24.70;99.90
4002;DHT22;2015;48.670;9.060;2023-07-29T15:27:41;24.60;99.90
4002;DHT22;2015;48.670;9.060;2023-07-29T15:30:13;24.50;99.90
4002;DHT22;2015;48.670;9.060;2023-07-29T15:32:45;24.50;99.90
4002;DHT22;2015;48.670;9.060;2023-07-29T15:35:17;24.50;99.90
4002;DHT22;2015;48.670;9.060;2023-07-29T15:37:49;24.70;99.90
4002;DHT22;2015;48.670;9.060;2023-07-29T15:40:21;24.70;99.90
4002;DHT22;2015;48.670;9.060;2023-07-29T15:42:52;24.70;99.90
4002;DHT22;2015;48.670;9.060;2023-07-29T15:45:24;24.70;99.90
4002;DHT22;2015;48.670;9.060;2023-07-29T15:47:56;24.60;99.90
4002;DHT22;2015;48.670;9.060;2023-07-29T15:50:28;24.40;99.90
4002;DHT22;2015;48.670;9.060;2023-07-29T15:53:00;24.30;99.90
4002;DHT22;2015;48.670;9.060;2023-07-29T15:55:32;24.20;99.90
4002;DHT22;2015;48.670;9.060;2023-07-29T15:58:04;24.00;99.90
4002;DHT22;2015;48.670;9.060;2023-07-29T16:00:35;24.00;99.90
4002;DHT22;2015;48.670;9.060;2023-07-29T16:03:07;24.00;99.90
4002;DHT22;2015;48.670;9.060;2023-07-29T16:05:39;24.10;99.90
4002;DHT22;2015;48.670;9.060;2023-07-29T16:08:11;24.10;99.90
4002;DHT22;2015;48.670;9.060;2023-07-29T16:10:42;24.10;99.90
4002;DHT22;2015;48.670;9.060;2023-07-29T16:13:14;24.00;99.90
4002;DHT22;2015;48.670;9.060;2023-07-29T16:15:49;24.00;99.90
4002;DHT22;2015;48.670;9.060;2023-07-29T16:18:21;24.00;99.90
4002;DHT22;2015;48.670;9.060;2023-07-29T16:20:53;24.00;99.90
4002;DHT22;2015;48.670;9.060;2023-07-29T16:23:25;24.10;99.90
4002;DHT22;2015;48.670;9.060;2023-07-29T16:25:57;24.20;99.90
4002;DHT22;2015;48.670;9.060;2023-07-29T16:28:29;24.30;99.90
4002;DHT22;2015;48.670;9.060;2023-07-29T16:31:02;24.20;99.90
4002;DHT22;2015;48.670;9.060;2023-07-29T16:33:35;24.20;99.90
4002;DHT22;2015;48.670;9.060;2023-07-29T16:36:07;24.10;99.90
4002;DHT22;2015;48.670;9.060;2023-07-29T16:38:38;24.10;99.90
4002;DHT22;2015;48.670;9.060;2023-07-29T16:41:10;24.10;99.90
4002;DHT22;2015;48.670;9.060;2023-07-29T16:44:02;23.90;99.90
4002;DHT22;2015;48.670;9.060;2023-07-29T16:46:33;23.80;99.90
4002;DHT22;2015;48.670;9.060;2023-07-29T16:49:05;23.70;99.90
4002;DHT22;2015;48.670;9.060;2023-07-29T16:51:47;23.70;99.90
4002;DHT22;2015;48.670;9.060;2023-07-29T16:54:20;23.50;99.90
4002;DHT22;2015;48.670;9.060;2023-07-29T16:56:52;23.40;99.90
4002;DHT22;2015;48.670;9.060;2023-07-29T16:59:23;23.30;99.90
4002;DHT22;2015;48.670;9.060;2023-07-29T17:01:55;23.30;99.90